sensor_id;sensor_type;location;lat;lon;timestamp;P1;durP1;ratioP1;P2;durP2;ratioP2
69551;SDS011;63774;45.292;11.784;2022-10-17T00:01:01;41.30;;;25.20;;
69551;SDS011;63774;45.292;11.784;2022-10-17T00:03:28;41.70;;;26.00;;
69551;SDS011;63774;45.292;11.784;2022-10-17T00:05:53;43.90;;;26.70;;
69551;SDS011;63774;45.292;11.784;2022-10-17T00:08:19;39.90;;;26.60;;
69551;SDS011;63774;45.292;11.784;2022-10-17T00:10:44;40.30;;;25.70;;
69551;SDS011;63774;45.292;11.784;2022-10-17T00:13:19;41.10;;;25.50;;
69551;SDS011;63774;45.292;11.784;2022-10-17T00:15:44;40.90;;;25.10;;
69551;SDS011;63774;45.292;11.784;2022-10-17T00:18:10;39.50;;;26.10;;
69551;SDS011;63774;45.292;11.784;2022-10-17T00:20:35;41.50;;;26.80;;
69551;SDS011;63774;45.292;11.784;2022-10-17T00:23:01;44.70;;;27.30;;
69551;SDS011;63774;45.292;11.784;2022-10-17T00:25:27;39.30;;;26.50;;
69551;SDS011;63774;45.292;11.784;2022-10-17T00:27:52;42.70;;;26.60;;
69551;SDS011;63774;45.292;11.784;2022-10-17T00:30:17;43.50;;;26.30;;
69551;SDS011;63774;45.292;11.784;2022-10-17T00:32:43;44.60;;;26.00;;
69551;SDS011;63774;45.292;11.784;2022-10-17T00:35:09;39.30;;;25.90;;
69551;SDS011;63774;45.292;11.784;2022-10-17T00:37:35;42.80;;;26.80;;
69551;SDS011;63774;45.292;11.784;2022-10-17T00:40:00;44.20;;;27.30;;
69551;SDS011;63774;45.292;11.784;2022-10-17T00:42:26;45.10;;;27.60;;
69551;SDS011;63774;45.292;11.784;2022-10-17T00:47:23;42.70;;;26.70;;
69551;SDS011;63774;45.292;11.784;2022-10-17T00:49:49;43.20;;;27.00;;
69551;SDS011;63774;45.292;11.784;2022-10-17T00:52:19;45.80;;;27.50;;
69551;SDS011;63774;45.292;11.784;2022-10-17T00:54:48;42.70;;;25.80;;
69551;SDS011;63774;45.292;11.784;2022-10-17T00:57:18;40.60;;;25.60;;
69551;SDS011;63774;45.292;11.784;2022-10-17T00:59:44;42.90;;;26.50;;
69551;SDS011;63774;45.292;11.784;2022-10-17T01:02:14;40.00;;;26.00;;
69551;SDS011;63774;45.292;11.784;2022-10-17T01:04:44;43.50;;;26.70;;
69551;SDS011;63774;45.292;11.784;2022-10-17T01:07:12;43.20;;;26.20;;
69551;SDS011;63774;45.292;11.784;2022-10-17T01:09:37;42.50;;;26.60;;
69551;SDS011;63774;45.292;11.784;2022-10-17T01:12:23;42.10;;;26.70;;
69551;SDS011;63774;45.292;11.784;2022-10-17T01:15:05;44.20;;;26.90;;
69551;SDS011;63774;45.292;11.784;2022-10-17T01:31:36;43.30;;;26.00;;
69551;SDS011;63774;45.292;11.784;2022-10-17T01:36:50;45.40;;;27.20;;
69551;SDS011;63774;45.292;11.784;2022-10-17T01:45:07;49.60;;;28.70;;
69551;SDS011;63774;45.292;11.784;2022-10-17T01:47:38;47.90;;;28.00;;
69551;SDS011;63774;45.292;11.784;2022-10-17T01:50:08;49.00;;;29.60;;
69551;SDS011;63774;45.292;11.784;2022-10-17T01:52:42;49.70;;;28.90;;
69551;SDS011;63774;45.292;11.784;2022-10-17T01:55:29;50.70;;;29.40;;
69551;SDS011;63774;45.292;11.784;2022-10-17T01:58:00;48.50;;;28.80;;
69551;SDS011;63774;45.292;11.784;2022-10-17T02:00:31;47.50;;;28.90;;
69551;SDS011;63774;45.292;11.784;2022-10-17T02:03:01;51.10;;;29.90;;
69551;SDS011;63774;45.292;11.784;2022-10-17T02:05:31;48.70;;;29.00;;
69551;SDS011;63774;45.292;11.784;2022-10-17T02:08:00;47.50;;;28.60;;
69551;SDS011;63774;45.292;11.784;2022-10-17T02:10:49;46.70;;;28.30;;
69551;SDS011;63774;45.292;11.784;2022-10-17T02:13:26;44.40;;;27.20;;
69551;SDS011;63774;45.292;11.784;2022-10-17T02:21:53;39.80;;;25.60;;
69551;SDS011;63774;45.292;11.784;2022-10-17T02:24:44;40.70;;;26.30;;
69551;SDS011;63774;45.292;11.784;2022-10-17T02:30:08;38.90;;;25.90;;
69551;SDS011;63774;45.292;11.784;2022-10-17T02:35:10;42.50;;;26.00;;
69551;SDS011;63774;45.292;11.784;2022-10-17T02:37:39;40.00;;;25.70;;
69551;SDS011;63774;45.292;11.784;2022-10-17T02:40:08;43.50;;;27.00;;
69551;SDS011;63774;45.292;11.784;2022-10-17T02:42:38;41.50;;;25.60;;
69551;SDS011;63774;45.292;11.784;2022-10-17T02:45:06;42.30;;;26.20;;
69551;SDS011;63774;45.292;11.784;2022-10-17T02:47:34;42.00;;;26.70;;
69551;SDS011;63774;45.292;11.784;2022-10-17T02:50:05;43.90;;;27.00;;
69551;SDS011;63774;45.292;11.784;2022-10-17T02:52:51;41.70;;;26.40;;
69551;SDS011;63774;45.292;11.784;2022-10-17T02:55:23;46.20;;;27.30;;
69551;SDS011;63774;45.292;11.784;2022-10-17T02:58:05;47.90;;;27.50;;
69551;SDS011;63774;45.292;11.784;2022-10-17T03:00:34;44.50;;;27.60;;
69551;SDS011;63774;45.292;11.784;2022-10-17T03:03:03;50.10;;;28.60;;
69551;SDS011;63774;45.292;11.784;2022-10-17T03:05:50;51.40;;;29.40;;
69551;SDS011;63774;45.292;11.784;2022-10-17T03:08:17;52.00;;;29.40;;
69551;SDS011;63774;45.292;11.784;2022-10-17T03:10:43;56.00;;;30.70;;
69551;SDS011;63774;45.292;11.784;2022-10-17T03:13:09;53.70;;;29.20;;
69551;SDS011;63774;45.292;11.784;2022-10-17T03:15:34;55.90;;;30.20;;
69551;SDS011;63774;45.292;11.784;2022-10-17T03:18:00;59.40;;;30.80;;
69551;SDS011;63774;45.292;11.784;2022-10-17T03:20:26;62.50;;;31.70;;
69551;SDS011;63774;45.292;11.784;2022-10-17T03:22:52;60.80;;;31.00;;
69551;SDS011;63774;45.292;11.784;2022-10-17T03:25:17;59.50;;;31.70;;
69551;SDS011;63774;45.292;11.784;2022-10-17T03:27:43;61.40;;;33.00;;
69551;SDS011;63774;45.292;11.784;2022-10-17T03:30:08;61.10;;;32.40;;
69551;SDS011;63774;45.292;11.784;2022-10-17T03:32:34;65.00;;;34.20;;
69551;SDS011;63774;45.292;11.784;2022-10-17T03:35:00;65.90;;;33.20;;
69551;SDS011;63774;45.292;11.784;2022-10-17T03:37:25;65.60;;;33.90;;
69551;SDS011;63774;45.292;11.784;2022-10-17T03:39:51;63.20;;;32.50;;
69551;SDS011;63774;45.292;11.784;2022-10-17T03:42:16;67.40;;;34.50;;
69551;SDS011;63774;45.292;11.784;2022-10-17T03:44:42;66.80;;;34.00;;
69551;SDS011;63774;45.292;11.784;2022-10-17T03:47:07;66.90;;;34.80;;
69551;SDS011;63774;45.292;11.784;2022-10-17T03:49:33;65.90;;;32.90;;
69551;SDS011;63774;45.292;11.784;2022-10-17T03:51:58;71.60;;;34.60;;
69551;SDS011;63774;45.292;11.784;2022-10-17T03:54:27;65.20;;;33.60;;
69551;SDS011;63774;45.292;11.784;2022-10-17T03:56:52;66.10;;;33.10;;
69551;SDS011;63774;45.292;11.784;2022-10-17T03:59:18;64.40;;;33.20;;
69551;SDS011;63774;45.292;11.784;2022-10-17T04:01:43;65.60;;;33.20;;
69551;SDS011;63774;45.292;11.784;2022-10-17T04:04:09;69.30;;;34.40;;
69551;SDS011;63774;45.292;11.784;2022-10-17T04:06:35;70.20;;;35.30;;
69551;SDS011;63774;45.292;11.784;2022-10-17T04:09:02;70.40;;;34.20;;
69551;SDS011;63774;45.292;11.784;2022-10-17T04:11:28;68.60;;;34.20;;
69551;SDS011;63774;45.292;11.784;2022-10-17T04:13:54;68.90;;;35.30;;
69551;SDS011;63774;45.292;11.784;2022-10-17T04:16:21;67.30;;;34.10;;
69551;SDS011;63774;45.292;11.784;2022-10-17T04:18:51;66.30;;;33.00;;
69551;SDS011;63774;45.292;11.784;2022-10-17T04:21:18;64.50;;;33.00;;
69551;SDS011;63774;45.292;11.784;2022-10-17T04:23:43;62.80;;;32.70;;
69551;SDS011;63774;45.292;11.784;2022-10-17T04:26:09;66.80;;;32.70;;
69551;SDS011;63774;45.292;11.784;2022-10-17T04:28:34;72.70;;;34.40;;
69551;SDS011;63774;45.292;11.784;2022-10-17T04:31:01;66.30;;;34.60;;
69551;SDS011;63774;45.292;11.784;2022-10-17T04:33:29;71.80;;;34.30;;
69551;SDS011;63774;45.292;11.784;2022-10-17T04:36:00;66.20;;;34.70;;
69551;SDS011;63774;45.292;11.784;2022-10-17T04:38:27;62.10;;;34.00;;
69551;SDS011;63774;45.292;11.784;2022-10-17T04:40:53;62.90;;;32.50;;
69551;SDS011;63774;45.292;11.784;2022-10-17T04:43:18;61.50;;;33.30;;
69551;SDS011;63774;45.292;11.784;2022-10-17T04:45:44;64.10;;;33.20;;
69551;SDS011;63774;45.292;11.784;2022-10-17T04:48:10;60.60;;;32.10;;
69551;SDS011;63774;45.292;11.784;2022-10-17T04:50:35;62.00;;;32.80;;
69551;SDS011;63774;45.292;11.784;2022-10-17T04:53:01;60.20;;;32.90;;
69551;SDS011;63774;45.292;11.784;2022-10-17T04:55:26;62.70;;;33.10;;
69551;SDS011;63774;45.292;11.784;2022-10-17T04:57:51;61.70;;;33.50;;
69551;SDS011;63774;45.292;11.784;2022-10-17T05:00:17;57.90;;;31.30;;
69551;SDS011;63774;45.292;11.784;2022-10-17T05:02:42;60.70;;;32.30;;
69551;SDS011;63774;45.292;11.784;2022-10-17T05:05:08;64.20;;;33.20;;
69551;SDS011;63774;45.292;11.784;2022-10-17T05:07:33;60.90;;;32.40;;
69551;SDS011;63774;45.292;11.784;2022-10-17T05:09:59;63.00;;;31.60;;
69551;SDS011;63774;45.292;11.784;2022-10-17T05:12:24;60.00;;;31.60;;
69551;SDS011;63774;45.292;11.784;2022-10-17T05:14:50;61.50;;;32.20;;
69551;SDS011;63774;45.292;11.784;2022-10-17T05:17:15;57.30;;;31.80;;
69551;SDS011;63774;45.292;11.784;2022-10-17T05:19:41;61.90;;;32.10;;
69551;SDS011;63774;45.292;11.784;2022-10-17T05:22:07;60.70;;;32.30;;
69551;SDS011;63774;45.292;11.784;2022-10-17T05:24:32;62.80;;;32.90;;
69551;SDS011;63774;45.292;11.784;2022-10-17T05:26:58;61.40;;;32.70;;
69551;SDS011;63774;45.292;11.784;2022-10-17T05:29:23;58.50;;;31.40;;
69551;SDS011;63774;45.292;11.784;2022-10-17T05:31:49;59.50;;;31.90;;
69551;SDS011;63774;45.292;11.784;2022-10-17T05:34:14;60.90;;;32.00;;
69551;SDS011;63774;45.292;11.784;2022-10-17T05:36:40;61.10;;;32.50;;
69551;SDS011;63774;45.292;11.784;2022-10-17T05:39:05;55.40;;;29.80;;
69551;SDS011;63774;45.292;11.784;2022-10-17T05:41:30;62.50;;;31.80;;
69551;SDS011;63774;45.292;11.784;2022-10-17T05:43:56;57.90;;;30.90;;
69551;SDS011;63774;45.292;11.784;2022-10-17T05:46:21;59.90;;;31.00;;
69551;SDS011;63774;45.292;11.784;2022-10-17T05:48:48;64.10;;;32.70;;
69551;SDS011;63774;45.292;11.784;2022-10-17T05:51:14;55.70;;;30.90;;
69551;SDS011;63774;45.292;11.784;2022-10-17T05:53:40;55.70;;;29.90;;
69551;SDS011;63774;45.292;11.784;2022-10-17T05:56:07;55.20;;;29.80;;
69551;SDS011;63774;45.292;11.784;2022-10-17T05:58:34;63.00;;;30.10;;
69551;SDS011;63774;45.292;11.784;2022-10-17T06:01:02;56.70;;;30.00;;
69551;SDS011;63774;45.292;11.784;2022-10-17T06:03:29;53.90;;;29.80;;
69551;SDS011;63774;45.292;11.784;2022-10-17T06:05:55;52.90;;;29.00;;
69551;SDS011;63774;45.292;11.784;2022-10-17T06:08:21;54.40;;;29.00;;
69551;SDS011;63774;45.292;11.784;2022-10-17T06:10:50;53.20;;;29.60;;
69551;SDS011;63774;45.292;11.784;2022-10-17T06:13:16;53.50;;;29.70;;
69551;SDS011;63774;45.292;11.784;2022-10-17T06:15:42;54.60;;;28.70;;
69551;SDS011;63774;45.292;11.784;2022-10-17T06:18:08;55.30;;;28.60;;
69551;SDS011;63774;45.292;11.784;2022-10-17T06:20:33;54.50;;;28.70;;
69551;SDS011;63774;45.292;11.784;2022-10-17T06:22:59;51.10;;;28.40;;
69551;SDS011;63774;45.292;11.784;2022-10-17T06:25:24;53.30;;;28.50;;
69551;SDS011;63774;45.292;11.784;2022-10-17T06:27:50;56.40;;;30.20;;
69551;SDS011;63774;45.292;11.784;2022-10-17T06:30:15;56.00;;;29.50;;
69551;SDS011;63774;45.292;11.784;2022-10-17T06:32:41;58.20;;;31.00;;
69551;SDS011;63774;45.292;11.784;2022-10-17T06:35:07;56.50;;;30.00;;
69551;SDS011;63774;45.292;11.784;2022-10-17T06:37:33;53.60;;;29.50;;
69551;SDS011;63774;45.292;11.784;2022-10-17T06:39:59;53.40;;;29.90;;
69551;SDS011;63774;45.292;11.784;2022-10-17T06:42:24;54.00;;;27.90;;
69551;SDS011;63774;45.292;11.784;2022-10-17T06:44:50;54.70;;;29.20;;
69551;SDS011;63774;45.292;11.784;2022-10-17T06:47:15;50.90;;;29.10;;
69551;SDS011;63774;45.292;11.784;2022-10-17T06:49:41;52.90;;;29.20;;
69551;SDS011;63774;45.292;11.784;2022-10-17T06:52:06;51.20;;;27.90;;
69551;SDS011;63774;45.292;11.784;2022-10-17T06:54:32;51.50;;;28.00;;
69551;SDS011;63774;45.292;11.784;2022-10-17T06:56:57;49.50;;;28.80;;
69551;SDS011;63774;45.292;11.784;2022-10-17T06:59:22;49.30;;;26.80;;
69551;SDS011;63774;45.292;11.784;2022-10-17T07:01:48;50.90;;;28.40;;
69551;SDS011;63774;45.292;11.784;2022-10-17T07:04:14;50.40;;;27.70;;
69551;SDS011;63774;45.292;11.784;2022-10-17T07:06:39;46.90;;;27.10;;
69551;SDS011;63774;45.292;11.784;2022-10-17T07:09:05;49.30;;;27.40;;
69551;SDS011;63774;45.292;11.784;2022-10-17T07:11:31;45.50;;;26.50;;
69551;SDS011;63774;45.292;11.784;2022-10-17T07:13:58;44.70;;;26.30;;
69551;SDS011;63774;45.292;11.784;2022-10-17T07:16:24;46.10;;;26.40;;
69551;SDS011;63774;45.292;11.784;2022-10-17T07:18:49;47.40;;;27.10;;
69551;SDS011;63774;45.292;11.784;2022-10-17T07:21:16;43.70;;;25.90;;
69551;SDS011;63774;45.292;11.784;2022-10-17T07:23:42;47.20;;;27.00;;
69551;SDS011;63774;45.292;11.784;2022-10-17T07:26:09;44.40;;;25.50;;
69551;SDS011;63774;45.292;11.784;2022-10-17T07:28:36;43.90;;;25.80;;
69551;SDS011;63774;45.292;11.784;2022-10-17T07:31:08;46.30;;;26.00;;
69551;SDS011;63774;45.292;11.784;2022-10-17T07:33:35;47.70;;;27.80;;
69551;SDS011;63774;45.292;11.784;2022-10-17T07:36:01;44.70;;;26.90;;
69551;SDS011;63774;45.292;11.784;2022-10-17T07:38:28;49.80;;;28.80;;
69551;SDS011;63774;45.292;11.784;2022-10-17T07:40:54;53.50;;;28.30;;
69551;SDS011;63774;45.292;11.784;2022-10-17T07:43:21;49.90;;;28.40;;
69551;SDS011;63774;45.292;11.784;2022-10-17T07:45:47;47.80;;;28.50;;
69551;SDS011;63774;45.292;11.784;2022-10-17T07:48:13;51.50;;;30.00;;
69551;SDS011;63774;45.292;11.784;2022-10-17T07:50:38;49.10;;;29.20;;
69551;SDS011;63774;45.292;11.784;2022-10-17T07:53:04;47.90;;;28.50;;
69551;SDS011;63774;45.292;11.784;2022-10-17T07:55:29;49.00;;;28.40;;
69551;SDS011;63774;45.292;11.784;2022-10-17T07:57:55;49.40;;;28.90;;
69551;SDS011;63774;45.292;11.784;2022-10-17T08:00:22;51.20;;;29.40;;
69551;SDS011;63774;45.292;11.784;2022-10-17T08:02:47;48.10;;;27.40;;
69551;SDS011;63774;45.292;11.784;2022-10-17T08:05:13;46.30;;;28.50;;
69551;SDS011;63774;45.292;11.784;2022-10-17T08:07:38;48.30;;;27.30;;
69551;SDS011;63774;45.292;11.784;2022-10-17T08:10:05;52.00;;;29.50;;
69551;SDS011;63774;45.292;11.784;2022-10-17T08:12:31;51.40;;;29.60;;
69551;SDS011;63774;45.292;11.784;2022-10-17T08:14:59;50.40;;;29.20;;
69551;SDS011;63774;45.292;11.784;2022-10-17T08:17:25;50.50;;;29.20;;
69551;SDS011;63774;45.292;11.784;2022-10-17T08:19:51;50.70;;;29.90;;
69551;SDS011;63774;45.292;11.784;2022-10-17T08:22:16;53.20;;;29.80;;
69551;SDS011;63774;45.292;11.784;2022-10-17T08:24:42;52.30;;;30.40;;
69551;SDS011;63774;45.292;11.784;2022-10-17T08:27:09;53.50;;;29.60;;
69551;SDS011;63774;45.292;11.784;2022-10-17T08:29:37;52.70;;;29.90;;
69551;SDS011;63774;45.292;11.784;2022-10-17T08:32:05;59.70;;;30.80;;
69551;SDS011;63774;45.292;11.784;2022-10-17T08:34:33;54.50;;;30.00;;
69551;SDS011;63774;45.292;11.784;2022-10-17T08:36:58;56.10;;;30.60;;
69551;SDS011;63774;45.292;11.784;2022-10-17T08:39:24;48.50;;;28.60;;
69551;SDS011;63774;45.292;11.784;2022-10-17T08:42:15;54.00;;;30.40;;
69551;SDS011;63774;45.292;11.784;2022-10-17T08:47:41;52.50;;;29.40;;
69551;SDS011;63774;45.292;11.784;2022-10-17T08:50:15;52.00;;;29.20;;
69551;SDS011;63774;45.292;11.784;2022-10-17T08:53:10;53.00;;;29.30;;
69551;SDS011;63774;45.292;11.784;2022-10-17T08:55:48;51.50;;;30.30;;
69551;SDS011;63774;45.292;11.784;2022-10-17T09:06:32;48.40;;;29.20;;
69551;SDS011;63774;45.292;11.784;2022-10-17T09:33:51;45.00;;;26.90;;
69551;SDS011;63774;45.292;11.784;2022-10-17T09:36:30;46.40;;;28.50;;
69551;SDS011;63774;45.292;11.784;2022-10-17T09:39:21;48.20;;;28.80;;
69551;SDS011;63774;45.292;11.784;2022-10-17T09:41:50;45.80;;;27.60;;
69551;SDS011;63774;45.292;11.784;2022-10-17T09:44:30;45.20;;;26.90;;
69551;SDS011;63774;45.292;11.784;2022-10-17T09:49:38;47.20;;;26.20;;
69551;SDS011;63774;45.292;11.784;2022-10-17T09:52:09;42.30;;;26.20;;
69551;SDS011;63774;45.292;11.784;2022-10-17T09:54:43;42.20;;;25.90;;
69551;SDS011;63774;45.292;11.784;2022-10-17T09:57:09;45.10;;;26.60;;
69551;SDS011;63774;45.292;11.784;2022-10-17T09:59:38;42.50;;;26.30;;
69551;SDS011;63774;45.292;11.784;2022-10-17T10:07:30;41.20;;;25.90;;
69551;SDS011;63774;45.292;11.784;2022-10-17T10:09:58;40.20;;;24.50;;
69551;SDS011;63774;45.292;11.784;2022-10-17T10:12:27;41.00;;;25.40;;
69551;SDS011;63774;45.292;11.784;2022-10-17T10:14:55;43.50;;;26.60;;
69551;SDS011;63774;45.292;11.784;2022-10-17T10:20:02;40.60;;;25.10;;
69551;SDS011;63774;45.292;11.784;2022-10-17T10:23:05;45.40;;;27.00;;
69551;SDS011;63774;45.292;11.784;2022-10-17T10:28:17;39.00;;;25.10;;
69551;SDS011;63774;45.292;11.784;2022-10-17T10:30:48;40.70;;;24.20;;
69551;SDS011;63774;45.292;11.784;2022-10-17T10:33:17;42.00;;;25.00;;
69551;SDS011;63774;45.292;11.784;2022-10-17T10:35:50;40.40;;;24.50;;
69551;SDS011;63774;45.292;11.784;2022-10-17T10:38:21;43.20;;;25.10;;
69551;SDS011;63774;45.292;11.784;2022-10-17T10:40:48;42.10;;;24.50;;
69551;SDS011;63774;45.292;11.784;2022-10-17T10:43:29;44.80;;;24.60;;
69551;SDS011;63774;45.292;11.784;2022-10-17T10:46:43;38.00;;;23.50;;
69551;SDS011;63774;45.292;11.784;2022-10-17T10:49:01;35.80;;;23.10;;
69551;SDS011;63774;45.292;11.784;2022-10-17T10:51:29;42.20;;;25.10;;
69551;SDS011;63774;45.292;11.784;2022-10-17T10:56:48;37.10;;;22.50;;
69551;SDS011;63774;45.292;11.784;2022-10-17T10:59:19;38.40;;;22.30;;
69551;SDS011;63774;45.292;11.784;2022-10-17T11:07:16;36.10;;;21.20;;
69551;SDS011;63774;45.292;11.784;2022-10-17T11:10:11;38.30;;;21.90;;
69551;SDS011;63774;45.292;11.784;2022-10-17T11:12:43;36.90;;;21.70;;
69551;SDS011;63774;45.292;11.784;2022-10-17T11:18:04;35.30;;;22.90;;
69551;SDS011;63774;45.292;11.784;2022-10-17T11:26:28;36.30;;;22.10;;
69551;SDS011;63774;45.292;11.784;2022-10-17T11:28:58;33.60;;;20.50;;
69551;SDS011;63774;45.292;11.784;2022-10-17T11:31:28;34.60;;;22.30;;
69551;SDS011;63774;45.292;11.784;2022-10-17T11:36:37;32.00;;;20.80;;
69551;SDS011;63774;45.292;11.784;2022-10-17T11:39:09;34.70;;;22.30;;
69551;SDS011;63774;45.292;11.784;2022-10-17T11:41:47;33.40;;;20.70;;
69551;SDS011;63774;45.292;11.784;2022-10-17T11:44:21;33.30;;;21.60;;
69551;SDS011;63774;45.292;11.784;2022-10-17T11:50:04;33.90;;;20.50;;
69551;SDS011;63774;45.292;11.784;2022-10-17T11:52:53;29.60;;;19.40;;
69551;SDS011;63774;45.292;11.784;2022-10-17T11:55:25;31.30;;;19.20;;
69551;SDS011;63774;45.292;11.784;2022-10-17T12:09:05;33.30;;;20.70;;
69551;SDS011;63774;45.292;11.784;2022-10-17T12:17:01;35.60;;;20.60;;
69551;SDS011;63774;45.292;11.784;2022-10-17T12:19:32;32.90;;;20.20;;
69551;SDS011;63774;45.292;11.784;2022-10-17T12:22:32;32.80;;;20.70;;
69551;SDS011;63774;45.292;11.784;2022-10-17T12:24:53;33.30;;;19.90;;
69551;SDS011;63774;45.292;11.784;2022-10-17T12:27:34;32.20;;;19.60;;
69551;SDS011;63774;45.292;11.784;2022-10-17T12:32:39;35.60;;;21.60;;
69551;SDS011;63774;45.292;11.784;2022-10-17T12:35:21;32.40;;;19.70;;
69551;SDS011;63774;45.292;11.784;2022-10-17T12:43:01;31.50;;;20.00;;
69551;SDS011;63774;45.292;11.784;2022-10-17T12:45:48;33.40;;;19.60;;
69551;SDS011;63774;45.292;11.784;2022-10-17T12:51:12;31.20;;;19.50;;
69551;SDS011;63774;45.292;11.784;2022-10-17T12:56:11;36.10;;;21.60;;
69551;SDS011;63774;45.292;11.784;2022-10-17T12:58:43;32.70;;;21.00;;
69551;SDS011;63774;45.292;11.784;2022-10-17T13:01:21;29.20;;;19.40;;
69551;SDS011;63774;45.292;11.784;2022-10-17T13:03:52;33.50;;;20.30;;
69551;SDS011;63774;45.292;11.784;2022-10-17T13:06:19;35.40;;;21.40;;
69551;SDS011;63774;45.292;11.784;2022-10-17T13:08:49;36.00;;;20.60;;
69551;SDS011;63774;45.292;11.784;2022-10-17T13:11:22;35.40;;;21.10;;
69551;SDS011;63774;45.292;11.784;2022-10-17T13:13:52;31.80;;;20.20;;
69551;SDS011;63774;45.292;11.784;2022-10-17T13:16:29;30.90;;;20.40;;
69551;SDS011;63774;45.292;11.784;2022-10-17T13:19:16;31.00;;;19.30;;
69551;SDS011;63774;45.292;11.784;2022-10-17T13:21:50;30.60;;;19.40;;
69551;SDS011;63774;45.292;11.784;2022-10-17T13:24:28;30.90;;;20.60;;
69551;SDS011;63774;45.292;11.784;2022-10-17T13:26:53;33.30;;;20.40;;
69551;SDS011;63774;45.292;11.784;2022-10-17T13:29:19;37.00;;;21.00;;
69551;SDS011;63774;45.292;11.784;2022-10-17T13:31:50;30.40;;;18.50;;
69551;SDS011;63774;45.292;11.784;2022-10-17T13:34:19;34.40;;;20.30;;
69551;SDS011;63774;45.292;11.784;2022-10-17T13:37:03;28.80;;;18.30;;
69551;SDS011;63774;45.292;11.784;2022-10-17T13:39:33;29.80;;;19.40;;
69551;SDS011;63774;45.292;11.784;2022-10-17T13:42:03;33.60;;;19.50;;
69551;SDS011;63774;45.292;11.784;2022-10-17T13:44:33;34.20;;;19.50;;
69551;SDS011;63774;45.292;11.784;2022-10-17T13:46:59;33.80;;;19.80;;
69551;SDS011;63774;45.292;11.784;2022-10-17T13:52:06;27.40;;;18.40;;
69551;SDS011;63774;45.292;11.784;2022-10-17T13:54:49;35.00;;;20.20;;
69551;SDS011;63774;45.292;11.784;2022-10-17T13:59:50;37.30;;;20.30;;
69551;SDS011;63774;45.292;11.784;2022-10-17T14:02:20;31.40;;;20.10;;
69551;SDS011;63774;45.292;11.784;2022-10-17T14:05:00;28.60;;;18.40;;
69551;SDS011;63774;45.292;11.784;2022-10-17T14:10:26;29.00;;;18.80;;
69551;SDS011;63774;45.292;11.784;2022-10-17T14:12:56;30.70;;;18.60;;
69551;SDS011;63774;45.292;11.784;2022-10-17T14:15:29;31.10;;;18.60;;
69551;SDS011;63774;45.292;11.784;2022-10-17T14:18:07;31.70;;;19.40;;
69551;SDS011;63774;45.292;11.784;2022-10-17T14:20:33;32.40;;;18.80;;
69551;SDS011;63774;45.292;11.784;2022-10-17T14:23:00;30.70;;;18.50;;
69551;SDS011;63774;45.292;11.784;2022-10-17T14:25:39;31.90;;;19.60;;
69551;SDS011;63774;45.292;11.784;2022-10-17T14:30:38;34.70;;;19.40;;
69551;SDS011;63774;45.292;11.784;2022-10-17T14:33:27;30.90;;;18.70;;
69551;SDS011;63774;45.292;11.784;2022-10-17T14:35:55;28.40;;;18.50;;
69551;SDS011;63774;45.292;11.784;2022-10-17T14:38:22;32.70;;;18.60;;
69551;SDS011;63774;45.292;11.784;2022-10-17T14:40:49;32.20;;;18.20;;
69551;SDS011;63774;45.292;11.784;2022-10-17T14:43:20;29.70;;;18.40;;
69551;SDS011;63774;45.292;11.784;2022-10-17T14:45:49;30.00;;;18.90;;
69551;SDS011;63774;45.292;11.784;2022-10-17T14:48:16;31.40;;;18.70;;
69551;SDS011;63774;45.292;11.784;2022-10-17T14:53:40;31.00;;;18.20;;
69551;SDS011;63774;45.292;11.784;2022-10-17T14:56:21;31.10;;;18.20;;
69551;SDS011;63774;45.292;11.784;2022-10-17T14:58:52;27.40;;;18.30;;
69551;SDS011;63774;45.292;11.784;2022-10-17T15:01:18;28.50;;;18.20;;
69551;SDS011;63774;45.292;11.784;2022-10-17T15:03:44;29.70;;;18.80;;
69551;SDS011;63774;45.292;11.784;2022-10-17T15:06:17;29.20;;;17.40;;
69551;SDS011;63774;45.292;11.784;2022-10-17T15:08:48;30.60;;;18.30;;
69551;SDS011;63774;45.292;11.784;2022-10-17T15:11:13;28.80;;;17.80;;
69551;SDS011;63774;45.292;11.784;2022-10-17T15:13:39;31.80;;;18.40;;
69551;SDS011;63774;45.292;11.784;2022-10-17T15:16:23;31.20;;;18.40;;
69551;SDS011;63774;45.292;11.784;2022-10-17T15:18:51;26.20;;;16.20;;
69551;SDS011;63774;45.292;11.784;2022-10-17T15:21:18;27.50;;;17.80;;
69551;SDS011;63774;45.292;11.784;2022-10-17T15:23:45;28.40;;;16.30;;
69551;SDS011;63774;45.292;11.784;2022-10-17T15:26:12;25.90;;;17.00;;
69551;SDS011;63774;45.292;11.784;2022-10-17T15:28:48;28.00;;;17.60;;
69551;SDS011;63774;45.292;11.784;2022-10-17T15:31:16;27.80;;;17.00;;
69551;SDS011;63774;45.292;11.784;2022-10-17T15:33:43;29.00;;;17.20;;
69551;SDS011;63774;45.292;11.784;2022-10-17T15:36:19;26.10;;;16.60;;
69551;SDS011;63774;45.292;11.784;2022-10-17T15:38:46;25.70;;;16.10;;
69551;SDS011;63774;45.292;11.784;2022-10-17T15:41:13;28.70;;;15.90;;
69551;SDS011;63774;45.292;11.784;2022-10-17T15:43:38;26.00;;;16.30;;
69551;SDS011;63774;45.292;11.784;2022-10-17T15:46:07;25.10;;;15.70;;
69551;SDS011;63774;45.292;11.784;2022-10-17T15:48:38;26.40;;;16.50;;
69551;SDS011;63774;45.292;11.784;2022-10-17T15:51:04;26.60;;;17.00;;
69551;SDS011;63774;45.292;11.784;2022-10-17T15:53:30;28.40;;;16.70;;
69551;SDS011;63774;45.292;11.784;2022-10-17T15:55:55;27.30;;;16.40;;
69551;SDS011;63774;45.292;11.784;2022-10-17T15:58:20;28.00;;;16.40;;
69551;SDS011;63774;45.292;11.784;2022-10-17T16:00:46;24.40;;;15.20;;
69551;SDS011;63774;45.292;11.784;2022-10-17T16:03:12;25.90;;;15.90;;
69551;SDS011;63774;45.292;11.784;2022-10-17T16:05:38;24.40;;;15.40;;
69551;SDS011;63774;45.292;11.784;2022-10-17T16:08:04;22.70;;;15.00;;
69551;SDS011;63774;45.292;11.784;2022-10-17T16:10:29;24.60;;;16.00;;
69551;SDS011;63774;45.292;11.784;2022-10-17T16:12:55;27.10;;;16.80;;
69551;SDS011;63774;45.292;11.784;2022-10-17T16:15:24;28.30;;;16.90;;
69551;SDS011;63774;45.292;11.784;2022-10-17T16:17:52;25.10;;;15.40;;
69551;SDS011;63774;45.292;11.784;2022-10-17T16:20:19;23.60;;;15.40;;
69551;SDS011;63774;45.292;11.784;2022-10-17T16:22:45;22.60;;;15.30;;
69551;SDS011;63774;45.292;11.784;2022-10-17T16:27:45;25.60;;;16.20;;
69551;SDS011;63774;45.292;11.784;2022-10-17T16:30:12;24.20;;;15.30;;
69551;SDS011;63774;45.292;11.784;2022-10-17T16:32:38;26.80;;;16.60;;
69551;SDS011;63774;45.292;11.784;2022-10-17T16:35:04;26.20;;;16.90;;
69551;SDS011;63774;45.292;11.784;2022-10-17T16:37:31;26.50;;;16.20;;
69551;SDS011;63774;45.292;11.784;2022-10-17T16:39:56;25.80;;;16.90;;
69551;SDS011;63774;45.292;11.784;2022-10-17T16:42:22;27.50;;;17.00;;
69551;SDS011;63774;45.292;11.784;2022-10-17T16:44:48;26.90;;;16.70;;
69551;SDS011;63774;45.292;11.784;2022-10-17T16:47:15;28.40;;;18.60;;
69551;SDS011;63774;45.292;11.784;2022-10-17T16:49:41;28.40;;;18.10;;
69551;SDS011;63774;45.292;11.784;2022-10-17T16:52:07;30.80;;;18.70;;
69551;SDS011;63774;45.292;11.784;2022-10-17T16:54:32;30.00;;;19.90;;